createdAt,value
2019-05-17T00:01:37.647Z,99065.96
2019-05-17T00:04:42.685Z,99069.59
2019-05-17T00:07:48.480Z,99079.09
2019-05-17T00:10:54.262Z,99072.09
2019-05-17T00:14:00.046Z,99078.47
2019-05-17T00:17:06.648Z,99080.61
2019-05-17T00:20:12.988Z,99082.25
2019-05-17T00:23:18.659Z,99081.17
2019-05-17T00:26:26.803Z,99078.33
2019-05-17T00:29:31.855Z,99074.76
2019-05-17T00:32:37.769Z,99075.89
2019-05-17T00:35:43.469Z,99075.00
2019-05-17T00:38:51.626Z,99077.13
2019-05-17T00:41:57.307Z,99075.78
2019-05-17T00:45:03.397Z,99079.59
2019-05-17T00:48:09.255Z,99082.23
2019-05-17T00:51:16.677Z,99086.11
2019-05-17T00:54:22.381Z,99081.66
2019-05-17T00:57:28.106Z,99081.02
2019-05-17T01:00:33.778Z,99076.06
2019-05-17T01:03:39.606Z,99071.78
2019-05-17T01:06:46.890Z,99066.26
2019-05-17T01:09:52.934Z,99076.70
2019-05-17T01:12:58.594Z,99082.20
2019-05-17T01:16:04.449Z,99086.53
2019-05-17T01:19:10.198Z,99072.51
2019-05-17T01:22:16.870Z,99087.95
2019-05-17T01:25:22.735Z,99078.84
2019-05-17T01:28:28.795Z,99074.98
2019-05-17T01:31:34.569Z,99077.45
2019-05-17T01:34:40.322Z,99077.23
2019-05-17T01:37:47.649Z,99075.62
2019-05-17T01:40:53.368Z,99070.95
2019-05-17T01:43:59.033Z,99069.95
2019-05-17T01:47:07.356Z,99070.68
2019-05-17T01:50:13.486Z,99068.83
2019-05-17T01:53:19.260Z,99066.48
2019-05-17T01:56:26.230Z,99069.85
2019-05-17T01:59:32.154Z,99068.41
2019-05-17T02:02:40.839Z,99062.51
2019-05-17T02:05:47.347Z,99065.48
2019-05-17T02:08:53.449Z,99059.72
2019-05-17T02:11:59.106Z,99058.23
2019-05-17T02:15:06.901Z,99067.98
2019-05-17T02:18:12.973Z,99067.83
2019-05-17T02:21:18.741Z,99072.25
2019-05-17T02:24:24.435Z,99079.41
2019-05-17T02:27:35.709Z,99076.66
2019-05-17T02:30:38.907Z,99076.30
2019-05-17T02:33:44.765Z,99076.44
2019-05-17T02:36:53.223Z,99072.17
2019-05-17T02:40:02.856Z,99068.87
2019-05-17T02:43:05.450Z,99071.42
2019-05-17T02:46:13.710Z,99065.91
2019-05-17T02:49:18.590Z,99060.42
2019-05-17T02:52:24.279Z,99070.58
2019-05-17T02:55:32.401Z,99073.03
2019-05-17T02:58:37.438Z,99077.22
2019-05-17T03:01:44.308Z,99066.84
2019-05-17T03:04:52.588Z,99064.94
2019-05-17T03:07:58.809Z,99062.44
2019-05-17T03:11:04.799Z,99061.25
2019-05-17T03:14:12.749Z,99063.99
2019-05-17T03:17:17.972Z,99070.19
2019-05-17T03:20:23.798Z,99051.69
2019-05-17T03:23:32.645Z,99051.76
2019-05-17T03:26:36.917Z,99066.41
2019-05-17T03:29:42.709Z,99060.17
2019-05-17T03:32:49.380Z,99057.98
2019-05-17T03:35:57.360Z,99050.56
2019-05-17T03:39:04.742Z,99057.42
2019-05-17T03:42:13.221Z,99052.71
2019-05-17T03:45:18.647Z,99054.22
2019-05-17T03:48:24.322Z,99054.58
2019-05-17T03:51:33.039Z,99058.73
2019-05-17T03:54:37.571Z,99054.13
2019-05-17T03:57:44.355Z,99054.80
2019-05-17T04:00:53.094Z,99053.08
2019-05-17T04:03:57.489Z,99049.27
2019-05-17T04:07:03.684Z,99054.64
2019-05-17T04:10:09.820Z,99056.36
2019-05-17T04:13:15.597Z,99057.59
2019-05-17T04:16:23.817Z,99056.45
2019-05-17T04:19:28.764Z,99057.50
2019-05-17T04:22:34.501Z,99057.59
2019-05-17T04:25:43.320Z,99067.23
2019-05-17T04:28:47.855Z,99065.53
2019-05-17T04:31:54.612Z,99058.84
2019-05-17T04:35:03.754Z,99061.06
2019-05-17T04:38:08.163Z,99054.11
2019-05-17T04:41:13.901Z,99055.91
2019-05-17T04:44:19.577Z,99059.97
2019-05-17T04:47:25.300Z,99051.34
2019-05-17T04:50:33.484Z,99062.53
2019-05-17T04:53:38.453Z,99061.89
2019-05-17T04:56:44.253Z,99055.70
2019-05-17T04:59:52.333Z,99054.13
2019-05-17T05:02:57.730Z,99056.59
2019-05-17T05:06:03.714Z,99069.52
2019-05-17T05:09:12.485Z,99064.18
2019-05-17T05:12:17.012Z,99066.41
2019-05-17T05:15:44.033Z,99069.42
2019-05-17T05:18:48.490Z,99065.31
2019-05-17T05:21:54.275Z,99058.22
2019-05-17T05:25:02.209Z,99060.97
2019-05-17T05:28:07.664Z,99064.74
2019-05-17T05:31:13.504Z,99064.32
2019-05-17T05:34:21.457Z,99066.23
2019-05-17T05:37:26.695Z,99060.02
2019-05-17T05:40:32.404Z,99059.33
2019-05-17T05:43:45.501Z,99057.40
2019-05-17T05:46:51.521Z,99058.83
2019-05-17T05:49:57.198Z,99058.11
2019-05-17T05:53:03.150Z,99060.91
2019-05-17T05:56:09.055Z,99067.70
2019-05-17T05:59:14.723Z,99072.56
2019-05-17T06:02:23.888Z,99072.30
2019-05-17T06:05:34.966Z,99069.13
2019-05-17T06:08:41.770Z,99064.42
2019-05-17T06:11:47.468Z,99072.06
2019-05-17T06:14:53.178Z,99066.73
2019-05-17T06:17:58.948Z,99072.27
2019-05-17T06:21:08.876Z,99068.03
2019-05-17T06:24:14.605Z,99063.61
2019-05-17T06:27:21.553Z,99060.53
2019-05-17T06:30:27.471Z,99056.20
2019-05-17T06:33:34.909Z,99060.58
2019-05-17T06:36:42.454Z,99052.36
2019-05-17T06:39:48.296Z,99049.35
2019-05-17T06:42:55.506Z,99049.20
2019-05-17T06:46:01.816Z,99050.53
2019-05-17T06:49:11.727Z,99052.67
2019-05-17T06:52:16.370Z,99047.39
2019-05-17T06:55:25.229Z,99052.57
2019-05-17T06:58:36.025Z,99050.00
2019-05-17T07:01:44.900Z,99052.89
2019-05-17T07:04:51.245Z,99051.88
2019-05-17T07:08:00.733Z,99047.48
2019-05-17T07:11:06.878Z,99049.63
2019-05-17T07:14:12.574Z,99050.52
2019-05-17T07:17:19.690Z,99045.12
2019-05-17T07:20:25.562Z,99052.16
2019-05-17T07:23:31.285Z,99053.06
2019-05-17T07:26:39.238Z,99048.98
2019-05-17T07:29:44.428Z,99043.29
2019-05-17T07:32:50.201Z,99040.72
2019-05-17T07:35:56.052Z,99052.70
2019-05-17T07:39:01.742Z,99057.95
2019-05-17T07:42:09.669Z,99054.47
2019-05-17T07:45:15.775Z,99050.94
2019-05-17T07:48:22.904Z,99052.41
2019-05-17T07:51:30.159Z,99052.33
2019-05-17T07:54:36.161Z,99042.06
2019-05-17T07:57:41.827Z,99033.63
2019-05-17T08:00:50.896Z,99033.19
2019-05-17T08:03:55.004Z,99032.92
2019-05-17T08:07:00.708Z,99029.36
2019-05-17T08:10:10.987Z,99030.18
2019-05-17T08:13:29.129Z,99024.77
2019-05-17T08:16:24.100Z,99030.95
2019-05-17T08:19:53.866Z,99031.35
2019-05-17T08:22:59.647Z,99029.20
2019-05-17T08:26:05.519Z,99026.11
2019-05-17T08:29:11.238Z,99017.94
2019-05-17T08:32:17.055Z,99017.61
2019-05-17T08:35:22.783Z,99021.09
2019-05-17T08:38:30.536Z,99020.43
2019-05-17T08:41:49.622Z,99009.99
2019-05-17T08:44:49.998Z,99008.95
2019-05-17T08:47:56.840Z,99012.12
2019-05-17T08:51:03.646Z,99016.78
2019-05-17T08:54:10.304Z,99018.70
2019-05-17T08:57:16.613Z,99017.77
2019-05-17T09:00:26.402Z,99017.44
2019-05-17T09:03:32.090Z,99008.56
2019-05-17T09:06:39.735Z,99011.36
2019-05-17T09:09:45.280Z,99000.05
2019-05-17T09:13:00.374Z,98996.19
2019-05-17T09:16:07.539Z,98994.38
2019-05-17T09:19:13.267Z,98993.44
2019-05-17T09:22:19.853Z,98988.45
2019-05-17T09:25:30.318Z,99000.05
2019-05-17T09:28:36.116Z,98989.70
2019-05-17T09:31:41.812Z,98993.80
2019-05-17T09:34:49.662Z,98994.98
2019-05-17T09:37:54.963Z,98996.52
2019-05-17T09:41:00.923Z,98988.77
2019-05-17T09:44:12.842Z,98990.52
2019-05-17T09:47:14.469Z,98988.36
2019-05-17T09:50:20.336Z,98976.19
2019-05-17T09:53:26.014Z,98974.23
2019-05-17T09:56:36.100Z,98966.36
2019-05-17T09:59:41.809Z,98970.70
2019-05-17T10:02:47.464Z,98964.72
2019-05-17T10:05:53.193Z,98969.89
2019-05-17T10:09:00.192Z,98970.34
2019-05-17T10:12:09.540Z,98964.27
2019-05-17T10:15:15.561Z,98967.48
2019-05-17T10:18:21.264Z,98977.14
2019-05-17T10:21:27.092Z,98973.94
2019-05-17T10:24:38.166Z,98974.88
2019-05-17T10:27:40.916Z,98969.52
2019-05-17T10:30:46.701Z,98971.62
2019-05-17T10:33:52.436Z,98967.05
2019-05-17T10:36:58.266Z,98959.88
2019-05-17T10:40:03.944Z,98960.69
2019-05-17T10:43:10.170Z,98949.70
2019-05-17T10:46:16.171Z,98950.47
2019-05-17T10:49:21.946Z,98957.84
2019-05-17T10:52:29.913Z,98954.59
2019-05-17T10:55:35.147Z,98960.00
2019-05-17T10:58:40.915Z,98961.72
2019-05-17T11:01:46.578Z,98955.92
2019-05-17T11:04:52.255Z,98947.48
2019-05-17T11:07:59.879Z,98947.17
2019-05-17T11:11:05.405Z,98951.41
2019-05-17T11:14:11.094Z,98951.33
2019-05-17T11:17:16.800Z,98946.45
2019-05-17T11:20:22.787Z,98959.20
2019-05-17T11:23:28.457Z,98956.13
2019-05-17T11:26:34.256Z,98949.89
2019-05-17T11:29:40.243Z,98963.04
2019-05-17T11:32:45.906Z,98950.13
2019-05-17T11:35:51.705Z,98942.13
2019-05-17T11:38:57.414Z,98945.94
2019-05-17T11:42:03.115Z,98955.31
2019-05-17T11:45:08.996Z,98948.41
2019-05-17T11:48:14.814Z,98946.95
2019-05-17T11:51:21.750Z,98951.09
2019-05-17T11:54:27.685Z,98954.08
2019-05-17T11:57:34.530Z,98952.14
2019-05-17T12:00:40.279Z,98950.70
2019-05-17T12:03:45.955Z,98957.84
2019-05-17T12:06:51.650Z,98940.91
2019-05-17T12:09:58.867Z,98940.83
2019-05-17T12:13:04.653Z,98935.60
2019-05-17T12:16:10.337Z,98933.33
2019-05-17T12:19:25.221Z,98918.81
2019-05-17T12:22:30.924Z,98913.84
2019-05-17T12:25:39.320Z,98898.31
2019-05-17T12:28:45.151Z,98908.63
2019-05-17T12:31:50.922Z,98908.72
2019-05-17T12:34:58.235Z,98897.06
2019-05-17T12:38:06.451Z,98896.22
2019-05-17T12:41:12.310Z,98886.28
2019-05-17T12:44:18.057Z,98889.77
2019-05-17T12:47:24.844Z,98883.84
2019-05-17T12:50:30.577Z,98887.95
2019-05-17T12:53:36.342Z,98896.03
2019-05-17T12:56:42.114Z,98901.51
2019-05-17T12:59:47.916Z,98891.06
2019-05-17T13:02:53.583Z,98886.43
2019-05-17T13:05:59.620Z,98893.74
2019-05-17T13:09:06.592Z,98895.83
2019-05-17T13:12:12.460Z,98891.52
2019-05-17T13:15:18.242Z,98887.91
2019-05-17T13:18:25.137Z,98884.95
2019-05-17T13:21:30.795Z,98878.50
2019-05-17T13:24:36.554Z,98872.34
2019-05-17T13:27:42.274Z,98881.75
2019-05-17T13:30:48.027Z,98877.73
2019-05-17T13:33:53.801Z,98878.97
2019-05-17T13:36:59.466Z,98871.48
2019-05-17T13:40:05.888Z,98875.08
2019-05-17T13:43:11.607Z,98871.78
2019-05-17T13:46:30.745Z,98869.34
2019-05-17T13:49:24.841Z,98872.87
2019-05-17T13:52:30.575Z,98869.16
2019-05-17T13:55:36.531Z,98868.05
2019-05-17T13:58:42.195Z,98865.73
2019-05-17T14:01:47.841Z,98863.80
2019-05-17T14:04:53.564Z,98864.77
2019-05-17T14:07:59.245Z,98868.89
2019-05-17T14:11:05.129Z,98862.27
2019-05-17T14:14:10.883Z,98866.22
2019-05-17T14:17:16.614Z,98861.16
2019-05-17T14:20:22.335Z,98852.45
2019-05-17T14:23:28.070Z,98859.05
2019-05-17T14:26:35.052Z,98861.65
2019-05-17T14:29:40.977Z,98863.02
2019-05-17T14:32:46.750Z,98864.97
2019-05-17T14:35:52.433Z,98862.62
2019-05-17T14:38:58.237Z,98861.62
2019-05-17T14:42:04.051Z,98867.02
2019-05-17T14:45:13.464Z,98866.49
2019-05-17T14:48:19.163Z,98864.78
2019-05-17T14:51:24.845Z,98865.80
2019-05-17T14:54:31.545Z,98866.45
2019-05-17T14:57:42.597Z,98868.73
2019-05-17T15:00:46.565Z,98865.75
2019-05-17T15:03:52.301Z,98865.55
2019-05-17T15:06:58.031Z,98862.69
2019-05-17T15:10:04.746Z,98862.69
2019-05-17T15:13:10.707Z,98850.39
2019-05-17T15:16:16.381Z,98844.86
2019-05-17T15:19:25.773Z,98834.22
2019-05-17T15:22:31.484Z,98839.72
2019-05-17T15:25:37.278Z,98836.87
2019-05-17T15:28:44.210Z,98838.88
2019-05-17T15:31:52.143Z,98834.51
2019-05-17T15:34:57.376Z,98848.44
2019-05-17T15:38:05.702Z,98853.74
2019-05-17T15:41:11.417Z,98858.28
2019-05-17T15:44:17.596Z,98861.89
2019-05-17T15:47:23.312Z,98861.69
2019-05-17T15:50:28.993Z,98866.61
2019-05-17T15:53:34.642Z,98856.53
2019-05-17T15:56:40.369Z,98856.02
2019-05-17T15:59:46.322Z,98865.41
2019-05-17T16:02:54.947Z,98873.87
2019-05-17T16:06:00.651Z,98874.86
2019-05-17T16:09:07.866Z,98870.20
2019-05-17T16:12:13.531Z,98870.61
2019-05-17T16:15:19.207Z,98881.84
2019-05-17T16:18:24.872Z,98882.48
2019-05-17T16:21:30.610Z,98887.22
2019-05-17T16:24:36.359Z,98890.58
2019-05-17T16:27:42.376Z,98892.45
2019-05-17T16:30:48.159Z,98896.15
2019-05-17T16:33:53.887Z,98898.35
2019-05-17T16:36:59.566Z,98899.43
2019-05-17T16:40:06.039Z,98903.13
2019-05-17T16:43:18.178Z,98902.45
2019-05-17T16:46:19.408Z,98908.23
2019-05-17T16:49:28.430Z,98909.13
2019-05-17T16:52:33.630Z,98910.70
2019-05-17T16:55:42.503Z,98917.33
2019-05-17T16:58:48.237Z,98917.33
2019-05-17T17:01:53.998Z,98917.55
2019-05-17T17:04:59.669Z,98917.78
2019-05-17T17:08:05.768Z,98916.38
2019-05-17T17:11:11.687Z,98921.03
2019-05-17T17:14:17.525Z,98919.55
2019-05-17T17:17:33.183Z,98917.56
2019-05-17T17:20:47.543Z,98917.00
2019-05-17T17:23:53.277Z,98909.06
2019-05-17T17:27:00.973Z,98906.22
2019-05-17T17:30:07.499Z,98903.19
2019-05-17T17:33:17.461Z,98902.25
2019-05-17T17:36:21.754Z,98903.34
2019-05-17T17:39:27.429Z,98906.66
2019-05-17T17:42:33.177Z,98900.03
2019-05-17T17:45:42.308Z,98897.02
2019-05-17T17:48:48.042Z,98895.33
2019-05-17T17:51:56.785Z,98892.19
2019-05-17T17:55:06.689Z,98889.91
2019-05-17T17:58:12.532Z,98898.75
2019-05-17T18:01:19.858Z,98906.94
2019-05-17T18:04:25.659Z,98908.39
2019-05-17T18:07:31.366Z,98912.20
2019-05-17T18:10:42.530Z,98916.71
2019-05-17T18:13:48.187Z,98918.25
2019-05-17T18:16:53.934Z,98926.05
2019-05-17T18:19:59.741Z,98927.70
2019-05-17T18:23:05.612Z,98940.04
2019-05-17T18:26:11.459Z,98946.81
2019-05-17T18:29:17.379Z,98952.28
2019-05-17T18:32:23.112Z,98953.23
2019-05-17T18:35:29.197Z,98961.47
2019-05-17T18:38:36.105Z,98961.62
2019-05-17T18:41:41.973Z,98969.17
2019-05-17T18:44:47.628Z,98968.59
2019-05-17T18:47:53.514Z,98973.09
2019-05-17T18:50:59.263Z,98981.05
2019-05-17T18:54:06.485Z,98990.56
2019-05-17T18:57:12.299Z,98991.87
2019-05-17T19:00:19.404Z,98998.80
2019-05-17T19:03:25.160Z,98996.39
2019-05-17T19:06:31.030Z,99007.03
2019-05-17T19:09:36.826Z,99007.91
2019-05-17T19:12:42.610Z,99019.61
2019-05-17T19:15:48.250Z,99017.92
2019-05-17T19:18:53.963Z,99018.17
2019-05-17T19:21:59.652Z,99016.53
2019-05-17T19:25:06.204Z,99020.23
2019-05-17T19:28:12.013Z,99021.89
2019-05-17T19:31:17.710Z,99020.38
2019-05-17T19:34:23.600Z,99027.11
2019-05-17T19:37:29.394Z,99028.62
2019-05-17T19:40:35.135Z,99036.12
2019-05-17T19:43:40.916Z,99043.28
2019-05-17T19:46:46.685Z,99050.77
2019-05-17T19:49:52.763Z,99045.34
2019-05-17T19:52:58.484Z,99049.51
2019-05-17T19:56:04.258Z,99052.84
2019-05-17T19:59:11.109Z,99054.09
2019-05-17T20:02:16.825Z,99045.89
2019-05-17T20:05:22.770Z,99054.00
2019-05-17T20:08:28.554Z,99053.25
2019-05-17T20:11:34.893Z,99054.77
2019-05-17T20:14:40.603Z,99050.42
2019-05-17T20:17:46.367Z,99044.81
2019-05-17T20:20:54.436Z,99036.01
2019-05-17T20:24:00.084Z,99030.73
2019-05-17T20:27:05.894Z,99029.36
2019-05-17T20:30:12.544Z,99030.66
2019-05-17T20:33:20.081Z,99041.47
2019-05-17T20:40:18.707Z,99040.53
2019-05-17T20:43:24.540Z,99041.98
2019-05-17T20:46:56.819Z,99041.20
2019-05-17T20:50:02.547Z,99050.00
2019-05-17T20:53:18.501Z,99039.03
2019-05-17T20:56:31.368Z,99041.61
2019-05-17T20:59:24.589Z,99044.12
2019-05-17T21:02:30.261Z,99052.00
2019-05-17T21:05:35.934Z,99055.98
2019-05-17T21:08:46.208Z,99053.19
2019-05-17T21:11:49.060Z,99047.21
2019-05-17T21:14:56.532Z,99047.95
2019-05-17T21:18:02.123Z,99045.91
2019-05-17T21:21:07.949Z,99047.08
2019-05-17T21:24:13.620Z,99045.45
2019-05-17T21:27:19.415Z,99046.19
2019-05-17T21:30:25.133Z,99046.66
2019-05-17T21:33:30.799Z,99045.59
2019-05-17T21:36:36.493Z,99046.63
2019-05-17T21:39:42.222Z,99045.98
2019-05-17T21:42:47.904Z,99034.40
2019-05-17T21:46:03.675Z,99040.01
2019-05-17T21:49:03.138Z,99032.05
2019-05-17T21:52:08.866Z,99031.61
2019-05-17T21:55:14.704Z,99023.52
2019-05-17T21:58:20.615Z,99031.45
2019-05-17T22:01:28.436Z,99031.38
2019-05-17T22:04:34.347Z,99037.33
2019-05-17T22:07:40.154Z,99034.81
2019-05-17T22:10:45.918Z,99037.80
2019-05-17T22:13:51.629Z,99025.67
2019-05-17T22:16:57.311Z,99031.18
2019-05-17T22:20:03.083Z,99023.73
2019-05-17T22:23:08.808Z,99026.73
2019-05-17T22:26:14.505Z,99022.52
2019-05-17T22:29:20.356Z,99020.55
2019-05-17T22:32:26.075Z,99021.88
2019-05-17T22:35:31.744Z,99016.00
2019-05-17T22:38:37.601Z,99020.31
2019-05-17T22:41:43.282Z,99013.69
2019-05-17T22:47:53.546Z,98997.11
2019-05-17T22:51:00.197Z,98998.81
2019-05-17T22:54:06.206Z,99004.05
2019-05-17T22:57:53.455Z,99002.20
2019-05-17T23:05:29.747Z,99004.61
2019-05-17T23:08:35.404Z,99004.95
2019-05-17T23:11:41.204Z,99000.60
2019-05-17T23:14:46.891Z,99004.92
2019-05-17T23:17:53.574Z,99002.77
2019-05-17T23:20:59.252Z,98994.63
2019-05-17T23:24:06.242Z,98997.60
2019-05-17T23:27:13.340Z,99006.73
2019-05-17T23:30:19.784Z,99007.17
2019-05-17T23:33:25.637Z,99010.51
2019-05-17T23:36:31.319Z,99007.66
2019-05-17T23:39:37.053Z,98997.08
2019-05-17T23:42:42.732Z,98993.49
2019-05-17T23:45:48.587Z,98993.98
2019-05-17T23:48:54.484Z,98988.48
2019-05-17T23:52:00.148Z,98984.90
2019-05-17T23:55:06.711Z,98992.00
2019-05-17T23:58:12.407Z,98986.59
